Terminal Aerodrome Forecast
Issued by NWS Albany, NY

Current Version | Previous Version | Text Only | Print | Product List | Glossary On
Versions: 1 2 3 4 5 6 7 8 9 10 11 12 13 14 15 16 17 18
018
FTUS41 KALY 061122
TAFALB
TAF
KALB 061122Z 0612/0712 31005KT P6SM SCT050
     FM061400 04004KT P6SM SCT015 BKN200
     FM062200 09003KT P6SM OVC100
     FM070500 10003KT 4SM -SNRA BKN015 OVC050
     FM070700 12004KT 2SM -SN OVC008=

USA.gov is the U.S. government's official web portal to all federal, state and local government web resources and services.